Annapolis, Indiana
Current Conditions -  °F | °C
As of 2:15 PM on Tuesday 21 Oct 2014 (Local Time) from KPRG Reporting Station
Overcast Overcast  
Wind Chill: 58°   Ceiling: 4300
Heat Index: 58°   Visibility: 10mi
Dew Point: 41°   Wind: 8mph
Humidity: 54%   Direction: 350°N
Pressure: 30.13"   Gusts: NA
Location:  39.8468°N, 87.2662°W
Report Text: KPRG 211815Z AUTO 35007KT 10SM BKN043 OVC049 14/05 A3013 RMK AO2 T01430050
Loading
Personal Weather Stations






























Interactive Weather Map
Tropical Storm Tracking
New forecast layout! Learn more

10-Day Weather Forecast

Advertisements
Track Severe Weather on mobile